sensor_id;sensor_type;location;lat;lon;timestamp;pressure;altitude;pressure_sealevel;temperature;humidity
7433;BME280;32233;49.500;7.764;2023-12-22T00:01:23;97269.06;;;6.18;100.00
7433;BME280;32233;49.500;7.764;2023-12-22T00:03:50;97260.19;;;6.19;100.00
7433;BME280;32233;49.500;7.764;2023-12-22T00:06:16;97252.91;;;6.15;100.00
7433;BME280;32233;49.500;7.764;2023-12-22T00:08:43;97259.78;;;6.03;100.00
7433;BME280;32233;49.500;7.764;2023-12-22T00:11:09;97259.94;;;5.88;100.00
7433;BME280;32233;49.500;7.764;2023-12-22T00:13:36;97285.41;;;6.01;100.00
7433;BME280;32233;49.500;7.764;2023-12-22T00:16:03;97282.78;;;6.14;100.00
7433;BME280;32233;49.500;7.764;2023-12-22T00:18:29;97277.75;;;6.26;100.00
7433;BME280;32233;49.500;7.764;2023-12-22T00:20:57;97275.31;;;6.31;100.00
7433;BME280;32233;49.500;7.764;2023-12-22T00:23:24;97274.72;;;6.22;100.00
7433;BME280;32233;49.500;7.764;2023-12-22T00:25:50;97279.78;;;6.17;100.00
7433;BME280;32233;49.500;7.764;2023-12-22T00:28:17;97266.03;;;6.22;100.00
7433;BME280;32233;49.500;7.764;2023-12-22T00:30:43;97256.16;;;6.30;100.00
7433;BME280;32233;49.500;7.764;2023-12-22T00:33:10;97263.41;;;6.28;100.00
7433;BME280;32233;49.500;7.764;2023-12-22T00:35:37;97255.75;;;6.27;100.00
7433;BME280;32233;49.500;7.764;2023-12-22T00:38:04;97251.13;;;6.29;100.00
7433;BME280;32233;49.500;7.764;2023-12-22T00:40:30;97246.25;;;6.32;100.00
7433;BME280;32233;49.500;7.764;2023-12-22T00:42:57;97268.47;;;6.30;100.00
7433;BME280;32233;49.500;7.764;2023-12-22T00:45:24;97260.59;;;6.23;100.00
7433;BME280;32233;49.500;7.764;2023-12-22T00:47:50;97264.03;;;6.30;100.00
7433;BME280;32233;49.500;7.764;2023-12-22T00:50:17;97272.28;;;6.27;100.00
7433;BME280;32233;49.500;7.764;2023-12-22T00:52:44;97268.47;;;6.30;100.00
7433;BME280;32233;49.500;7.764;2023-12-22T00:55:10;97259.19;;;6.20;100.00
7433;BME280;32233;49.500;7.764;2023-12-22T00:57:37;97263.63;;;6.13;100.00
7433;BME280;32233;49.500;7.764;2023-12-22T01:00:04;97272.28;;;6.07;100.00
7433;BME280;32233;49.500;7.764;2023-12-22T01:02:32;97278.34;;;6.08;100.00
7433;BME280;32233;49.500;7.764;2023-12-22T01:04:58;97279.56;;;5.92;100.00
7433;BME280;32233;49.500;7.764;2023-12-22T01:07:25;97272.50;;;5.92;100.00
7433;BME280;32233;49.500;7.764;2023-12-22T01:09:52;97268.00;;;5.86;100.00
7433;BME280;32233;49.500;7.764;2023-12-22T01:12:19;97273.28;;;6.00;100.00
7433;BME280;32233;49.500;7.764;2023-12-22T01:14:45;97267.47;;;6.04;100.00
7433;BME280;32233;49.500;7.764;2023-12-22T01:17:12;97280.38;;;6.06;100.00
7433;BME280;32233;49.500;7.764;2023-12-22T01:19:38;97295.28;;;5.92;100.00
7433;BME280;32233;49.500;7.764;2023-12-22T01:22:05;97288.22;;;5.99;100.00
7433;BME280;32233;49.500;7.764;2023-12-22T01:24:32;97289.25;;;6.05;100.00
7433;BME280;32233;49.500;7.764;2023-12-22T01:26:58;97298.53;;;6.01;100.00
7433;BME280;32233;49.500;7.764;2023-12-22T01:29:25;97298.75;;;6.12;100.00
7433;BME280;32233;49.500;7.764;2023-12-22T01:31:52;97294.69;;;6.10;100.00
7433;BME280;32233;49.500;7.764;2023-12-22T01:34:18;97303.97;;;6.06;100.00
7433;BME280;32233;49.500;7.764;2023-12-22T01:36:45;97307.84;;;6.16;100.00
7433;BME280;32233;49.500;7.764;2023-12-22T01:39:12;97319.75;;;6.26;100.00
7433;BME280;32233;49.500;7.764;2023-12-22T01:41:38;97306.41;;;6.27;100.00
7433;BME280;32233;49.500;7.764;2023-12-22T01:44:05;97309.25;;;6.26;100.00
7433;BME280;32233;49.500;7.764;2023-12-22T01:46:32;97298.56;;;6.20;100.00
7433;BME280;32233;49.500;7.764;2023-12-22T01:48:59;97285.63;;;6.19;100.00
7433;BME280;32233;49.500;7.764;2023-12-22T01:51:29;97297.34;;;6.16;100.00
7433;BME280;32233;49.500;7.764;2023-12-22T01:53:56;97280.38;;;6.12;100.00
7433;BME280;32233;49.500;7.764;2023-12-22T01:56:23;97280.16;;;6.14;100.00
7433;BME280;32233;49.500;7.764;2023-12-22T01:58:55;97302.78;;;6.08;100.00
7433;BME280;32233;49.500;7.764;2023-12-22T02:01:24;97290.03;;;6.12;100.00
7433;BME280;32233;49.500;7.764;2023-12-22T02:03:51;97308.59;;;6.04;100.00
7433;BME280;32233;49.500;7.764;2023-12-22T02:06:20;97331.16;;;5.91;100.00
7433;BME280;32233;49.500;7.764;2023-12-22T02:08:47;97329.94;;;5.81;100.00
7433;BME280;32233;49.500;7.764;2023-12-22T02:11:14;97309.53;;;5.69;100.00
7433;BME280;32233;49.500;7.764;2023-12-22T02:13:43;97308.09;;;5.67;100.00
7433;BME280;32233;49.500;7.764;2023-12-22T02:16:46;97303.03;;;5.59;100.00
7433;BME280;32233;49.500;7.764;2023-12-22T02:22:07;97310.50;;;5.62;100.00
7433;BME280;32233;49.500;7.764;2023-12-22T02:24:36;97313.34;;;5.67;100.00
7433;BME280;32233;49.500;7.764;2023-12-22T02:27:38;97313.16;;;5.75;100.00
7433;BME280;32233;49.500;7.764;2023-12-22T02:30:14;97316.19;;;5.79;100.00
7433;BME280;32233;49.500;7.764;2023-12-22T02:32:44;97313.81;;;5.90;100.00
7433;BME280;32233;49.500;7.764;2023-12-22T02:35:21;97315.00;;;5.81;100.00
7433;BME280;32233;49.500;7.764;2023-12-22T02:37:49;97313.81;;;5.90;100.00
7433;BME280;32233;49.500;7.764;2023-12-22T02:40:18;97294.47;;;5.98;100.00
7433;BME280;32233;49.500;7.764;2023-12-22T02:42:46;97308.22;;;6.07;100.00
7433;BME280;32233;49.500;7.764;2023-12-22T02:45:14;97312.66;;;6.13;100.00
7433;BME280;32233;49.500;7.764;2023-12-22T02:47:41;97302.78;;;6.15;100.00
7433;BME280;32233;49.500;7.764;2023-12-22T02:50:08;97307.81;;;6.10;100.00
7433;BME280;32233;49.500;7.764;2023-12-22T02:52:35;97291.25;;;6.16;100.00
7433;BME280;32233;49.500;7.764;2023-12-22T02:55:03;97304.38;;;6.16;100.00
7433;BME280;32233;49.500;7.764;2023-12-22T02:57:29;97305.41;;;6.22;100.00
7433;BME280;32233;49.500;7.764;2023-12-22T02:59:56;97316.72;;;6.22;100.00
7433;BME280;32233;49.500;7.764;2023-12-22T03:02:23;97301.78;;;6.23;100.00
7433;BME280;32233;49.500;7.764;2023-12-22T03:04:49;97307.63;;;6.31;100.00
7433;BME280;32233;49.500;7.764;2023-12-22T03:07:16;97308.22;;;6.27;100.00
7433;BME280;32233;49.500;7.764;2023-12-22T03:09:43;97308.84;;;6.09;100.00
7433;BME280;32233;49.500;7.764;2023-12-22T03:12:10;97300.69;;;5.90;100.00
7433;BME280;32233;49.500;7.764;2023-12-22T03:14:37;97320.47;;;5.80;100.00
7433;BME280;32233;49.500;7.764;2023-12-22T03:17:05;97290.38;;;5.69;100.00
7433;BME280;32233;49.500;7.764;2023-12-22T03:19:32;97300.59;;;5.51;100.00
7433;BME280;32233;49.500;7.764;2023-12-22T03:22:00;97310.44;;;5.42;100.00
7433;BME280;32233;49.500;7.764;2023-12-22T03:24:27;97314.84;;;5.28;100.00
7433;BME280;32233;49.500;7.764;2023-12-22T03:26:55;97312.38;;;5.20;100.00
7433;BME280;32233;49.500;7.764;2023-12-22T03:29:22;97315.84;;;5.27;100.00
7433;BME280;32233;49.500;7.764;2023-12-22T03:31:49;97313.38;;;5.19;100.00
7433;BME280;32233;49.500;7.764;2023-12-22T03:34:15;97313.97;;;5.21;100.00
7433;BME280;32233;49.500;7.764;2023-12-22T03:36:42;97329.13;;;5.26;100.00
7433;BME280;32233;49.500;7.764;2023-12-22T03:39:09;97328.16;;;5.33;100.00
7433;BME280;32233;49.500;7.764;2023-12-22T03:41:35;97332.16;;;5.29;100.00
7433;BME280;32233;49.500;7.764;2023-12-22T03:44:02;97325.34;;;5.35;100.00
7433;BME280;32233;49.500;7.764;2023-12-22T03:46:28;97331.88;;;5.59;100.00
7433;BME280;32233;49.500;7.764;2023-12-22T03:48:55;97346.41;;;5.61;100.00
7433;BME280;32233;49.500;7.764;2023-12-22T03:51:22;97361.38;;;5.74;100.00
7433;BME280;32233;49.500;7.764;2023-12-22T03:53:49;97359.78;;;5.80;100.00
7433;BME280;32233;49.500;7.764;2023-12-22T03:56:15;97358.78;;;5.87;100.00
7433;BME280;32233;49.500;7.764;2023-12-22T03:58:42;97354.75;;;5.91;100.00
7433;BME280;32233;49.500;7.764;2023-12-22T04:01:08;97360.38;;;5.82;100.00
7433;BME280;32233;49.500;7.764;2023-12-22T04:03:35;97355.94;;;5.82;100.00
7433;BME280;32233;49.500;7.764;2023-12-22T04:06:03;97351.09;;;5.79;100.00
7433;BME280;32233;49.500;7.764;2023-12-22T04:08:30;97346.06;;;5.78;100.00
7433;BME280;32233;49.500;7.764;2023-12-22T04:10:56;97361.59;;;5.79;100.00
7433;BME280;32233;49.500;7.764;2023-12-22T04:13:23;97363.81;;;5.76;100.00
7433;BME280;32233;49.500;7.764;2023-12-22T04:15:50;97351.31;;;5.78;100.00
7433;BME280;32233;49.500;7.764;2023-12-22T04:18:17;97347.06;;;5.77;100.00
7433;BME280;32233;49.500;7.764;2023-12-22T04:20:44;97338.38;;;5.69;100.00
7433;BME280;32233;49.500;7.764;2023-12-22T04:23:11;97336.75;;;5.68;100.00
7433;BME280;32233;49.500;7.764;2023-12-22T04:25:37;97341.38;;;5.66;100.00
7433;BME280;32233;49.500;7.764;2023-12-22T04:28:04;97341.59;;;5.65;100.00
7433;BME280;32233;49.500;7.764;2023-12-22T04:30:30;97329.25;;;5.59;100.00
7433;BME280;32233;49.500;7.764;2023-12-22T04:32:59;97340.94;;;5.56;100.00
7433;BME280;32233;49.500;7.764;2023-12-22T04:35:27;97331.88;;;5.52;100.00
7433;BME280;32233;49.500;7.764;2023-12-22T04:37:53;97331.66;;;5.54;100.00
7433;BME280;32233;49.500;7.764;2023-12-22T04:40:20;97329.03;;;5.54;100.00
7433;BME280;32233;49.500;7.764;2023-12-22T04:42:46;97339.53;;;5.54;100.00
7433;BME280;32233;49.500;7.764;2023-12-22T04:45:13;97345.97;;;5.51;100.00
7433;BME280;32233;49.500;7.764;2023-12-22T04:47:40;97334.47;;;5.52;100.00
7433;BME280;32233;49.500;7.764;2023-12-22T04:50:06;97342.34;;;5.52;100.00
7433;BME280;32233;49.500;7.764;2023-12-22T04:52:33;97356.75;;;5.76;100.00
7433;BME280;32233;49.500;7.764;2023-12-22T04:55:00;97355.28;;;5.67;100.00
7433;BME280;32233;49.500;7.764;2023-12-22T04:57:27;97361.56;;;5.72;100.00
7433;BME280;32233;49.500;7.764;2023-12-22T04:59:53;97359.06;;;5.92;100.00
7433;BME280;32233;49.500;7.764;2023-12-22T05:02:20;97376.75;;;5.90;100.00
7433;BME280;32233;49.500;7.764;2023-12-22T05:04:46;97384.63;;;5.90;100.00
7433;BME280;32233;49.500;7.764;2023-12-22T05:07:13;97373.53;;;5.88;100.00
7433;BME280;32233;49.500;7.764;2023-12-22T05:09:41;97370.34;;;5.93;100.00
7433;BME280;32233;49.500;7.764;2023-12-22T05:12:08;97384.69;;;6.04;100.00
7433;BME280;32233;49.500;7.764;2023-12-22T05:14:35;97377.47;;;6.12;100.00
7433;BME280;32233;49.500;7.764;2023-12-22T05:17:01;97387.94;;;6.19;100.00
7433;BME280;32233;49.500;7.764;2023-12-22T05:19:28;97385.72;;;6.16;100.00
7433;BME280;32233;49.500;7.764;2023-12-22T05:21:55;97377.47;;;6.12;100.00
7433;BME280;32233;49.500;7.764;2023-12-22T05:24:23;97378.47;;;6.18;100.00
7433;BME280;32233;49.500;7.764;2023-12-22T05:26:49;97365.16;;;6.13;100.00
7433;BME280;32233;49.500;7.764;2023-12-22T05:29:16;97395.44;;;6.22;100.00
7433;BME280;32233;49.500;7.764;2023-12-22T05:31:42;97393.41;;;6.24;100.00
7433;BME280;32233;49.500;7.764;2023-12-22T05:34:09;97395.66;;;6.20;100.00
7433;BME280;32233;49.500;7.764;2023-12-22T05:36:37;97389.56;;;6.20;100.00
7433;BME280;32233;49.500;7.764;2023-12-22T05:39:03;97383.31;;;6.28;100.00
7433;BME280;32233;49.500;7.764;2023-12-22T05:41:33;97388.97;;;6.31;100.00
7433;BME280;32233;49.500;7.764;2023-12-22T05:44:00;97388.38;;;6.29;100.00
7433;BME280;32233;49.500;7.764;2023-12-22T05:46:27;97406.94;;;6.28;100.00
7433;BME280;32233;49.500;7.764;2023-12-22T05:48:54;97394.41;;;6.23;100.00
7433;BME280;32233;49.500;7.764;2023-12-22T05:51:24;97395.63;;;6.27;100.00
7433;BME280;32233;49.500;7.764;2023-12-22T05:53:51;97399.50;;;6.25;100.00
7433;BME280;32233;49.500;7.764;2023-12-22T05:56:20;97403.91;;;6.17;100.00
7433;BME280;32233;49.500;7.764;2023-12-22T05:58:49;97404.25;;;6.08;100.00
7433;BME280;32233;49.500;7.764;2023-12-22T06:01:17;97403.66;;;6.06;100.00
7433;BME280;32233;49.500;7.764;2023-12-22T06:03:46;97419.19;;;6.01;100.00
7433;BME280;32233;49.500;7.764;2023-12-22T06:06:12;97427.88;;;6.01;100.00
7433;BME280;32233;49.500;7.764;2023-12-22T06:08:39;97432.31;;;6.01;100.00
7433;BME280;32233;49.500;7.764;2023-12-22T06:11:06;97427.06;;;6.01;100.00
7433;BME280;32233;49.500;7.764;2023-12-22T06:13:33;97441.97;;;5.93;100.00
7433;BME280;32233;49.500;7.764;2023-12-22T06:15:59;97436.56;;;6.02;100.00
7433;BME280;32233;49.500;7.764;2023-12-22T06:18:26;97443.59;;;5.94;100.00
7433;BME280;32233;49.500;7.764;2023-12-22T06:20:53;97441.53;;;5.90;100.00
7433;BME280;32233;49.500;7.764;2023-12-22T06:23:21;97435.47;;;5.89;100.00
7433;BME280;32233;49.500;7.764;2023-12-22T06:25:47;97441.78;;;6.02;100.00
7433;BME280;32233;49.500;7.764;2023-12-22T06:28:14;97439.94;;;5.95;100.00
7433;BME280;32233;49.500;7.764;2023-12-22T06:30:43;97452.59;;;5.85;100.00
7433;BME280;32233;49.500;7.764;2023-12-22T06:33:10;97447.31;;;5.79;100.00
7433;BME280;32233;49.500;7.764;2023-12-22T06:35:38;97451.53;;;5.73;100.00
7433;BME280;32233;49.500;7.764;2023-12-22T06:38:07;97454.38;;;5.78;100.00
7433;BME280;32233;49.500;7.764;2023-12-22T06:40:34;97454.00;;;5.81;100.00
7433;BME280;32233;49.500;7.764;2023-12-22T06:43:01;97456.00;;;5.79;100.00
7433;BME280;32233;49.500;7.764;2023-12-22T06:45:28;97457.59;;;5.74;100.00
7433;BME280;32233;49.500;7.764;2023-12-22T06:47:55;97464.84;;;5.71;100.00
7433;BME280;32233;49.500;7.764;2023-12-22T06:50:22;97480.97;;;5.68;100.00
7433;BME280;32233;49.500;7.764;2023-12-22T06:52:49;97481.78;;;5.69;100.00
7433;BME280;32233;49.500;7.764;2023-12-22T06:55:16;97482.78;;;5.75;100.00
7433;BME280;32233;49.500;7.764;2023-12-22T06:57:43;97485.41;;;5.68;100.00
7433;BME280;32233;49.500;7.764;2023-12-22T07:00:11;97488.25;;;5.73;100.00
7433;BME280;32233;49.500;7.764;2023-12-22T07:02:38;97479.75;;;5.71;100.00
7433;BME280;32233;49.500;7.764;2023-12-22T07:07:47;97483.97;;;5.65;100.00
7433;BME280;32233;49.500;7.764;2023-12-22T07:10:14;97489.16;;;5.59;100.00
7433;BME280;32233;49.500;7.764;2023-12-22T07:12:41;97488.34;;;5.58;100.00
7433;BME280;32233;49.500;7.764;2023-12-22T07:15:09;97478.28;;;5.62;100.00
7433;BME280;32233;49.500;7.764;2023-12-22T07:17:36;97482.13;;;5.59;100.00
7433;BME280;32233;49.500;7.764;2023-12-22T07:20:04;97487.13;;;5.54;100.00
7433;BME280;32233;49.500;7.764;2023-12-22T07:22:30;97498.81;;;5.52;100.00
7433;BME280;32233;49.500;7.764;2023-12-22T07:24:57;97493.38;;;5.53;100.00
7433;BME280;32233;49.500;7.764;2023-12-22T07:27:25;97490.81;;;5.60;100.00
7433;BME280;32233;49.500;7.764;2023-12-22T07:29:54;97494.19;;;5.54;100.00
7433;BME280;32233;49.500;7.764;2023-12-22T07:32:20;97497.00;;;5.52;100.00
7433;BME280;32233;49.500;7.764;2023-12-22T07:34:47;97502.25;;;5.52;100.00
7433;BME280;32233;49.500;7.764;2023-12-22T07:37:13;97501.88;;;5.55;100.00
7433;BME280;32233;49.500;7.764;2023-12-22T07:39:40;97510.28;;;5.51;100.00
7433;BME280;32233;49.500;7.764;2023-12-22T07:42:08;97516.75;;;5.55;100.00
7433;BME280;32233;49.500;7.764;2023-12-22T07:44:34;97517.19;;;5.58;100.00
7433;BME280;32233;49.500;7.764;2023-12-22T07:47:01;97526.25;;;5.56;100.00
7433;BME280;32233;49.500;7.764;2023-12-22T07:49:29;97523.50;;;5.64;100.00
7433;BME280;32233;49.500;7.764;2023-12-22T07:51:57;97520.66;;;5.65;100.00
7433;BME280;32233;49.500;7.764;2023-12-22T07:54:24;97527.72;;;5.65;100.00
7433;BME280;32233;49.500;7.764;2023-12-22T07:56:52;97532.63;;;5.75;100.00
7433;BME280;32233;49.500;7.764;2023-12-22T07:59:18;97537.06;;;5.74;100.00
7433;BME280;32233;49.500;7.764;2023-12-22T08:01:56;97538.50;;;5.77;100.00
7433;BME280;32233;49.500;7.764;2023-12-22T08:04:23;97524.16;;;5.79;100.00
7433;BME280;32233;49.500;7.764;2023-12-22T08:06:50;97524.00;;;5.81;100.00
7433;BME280;32233;49.500;7.764;2023-12-22T08:09:17;97526.63;;;5.87;100.00
7433;BME280;32233;49.500;7.764;2023-12-22T08:11:43;97536.94;;;5.89;100.00
7433;BME280;32233;49.500;7.764;2023-12-22T08:14:13;97518.59;;;5.89;100.00
7433;BME280;32233;49.500;7.764;2023-12-22T08:16:39;97512.34;;;5.90;100.00
7433;BME280;32233;49.500;7.764;2023-12-22T08:19:06;97509.16;;;5.94;100.00
7433;BME280;32233;49.500;7.764;2023-12-22T08:21:33;97510.44;;;6.05;100.00
7433;BME280;32233;49.500;7.764;2023-12-22T08:24:11;97507.00;;;6.05;100.00
7433;BME280;32233;49.500;7.764;2023-12-22T08:26:48;97509.84;;;6.10;100.00
7433;BME280;32233;49.500;7.764;2023-12-22T08:29:15;97510.06;;;6.15;100.00
7433;BME280;32233;49.500;7.764;2023-12-22T08:31:42;97513.06;;;6.12;100.00
7433;BME280;32233;49.500;7.764;2023-12-22T08:34:10;97506.03;;;6.12;100.00
7433;BME280;32233;49.500;7.764;2023-12-22T08:36:37;97509.44;;;6.13;100.00
7433;BME280;32233;49.500;7.764;2023-12-22T08:39:04;97527.25;;;6.24;100.00
7433;BME280;32233;49.500;7.764;2023-12-22T08:41:34;97527.66;;;6.21;100.00
7433;BME280;32233;49.500;7.764;2023-12-22T08:44:05;97534.50;;;6.22;100.00
7433;BME280;32233;49.500;7.764;2023-12-22T08:46:32;97527.06;;;6.26;100.00
7433;BME280;32233;49.500;7.764;2023-12-22T08:48:59;97532.31;;;6.26;100.00
7433;BME280;32233;49.500;7.764;2023-12-22T08:51:27;97526.47;;;6.30;100.00
7433;BME280;32233;49.500;7.764;2023-12-22T08:53:53;97518.81;;;6.29;100.00
7433;BME280;32233;49.500;7.764;2023-12-22T08:56:22;97513.34;;;6.30;100.00
7433;BME280;32233;49.500;7.764;2023-12-22T08:58:50;97521.44;;;6.29;100.00
7433;BME280;32233;49.500;7.764;2023-12-22T09:01:25;97517.41;;;6.33;100.00
7433;BME280;32233;49.500;7.764;2023-12-22T09:03:51;97532.16;;;6.40;100.00
7433;BME280;32233;49.500;7.764;2023-12-22T09:06:21;97532.97;;;6.48;100.00
7433;BME280;32233;49.500;7.764;2023-12-22T09:08:48;97538.06;;;6.49;100.00
7433;BME280;32233;49.500;7.764;2023-12-22T09:11:17;97526.34;;;6.52;100.00
7433;BME280;32233;49.500;7.764;2023-12-22T09:13:44;97529.56;;;6.47;100.00
7433;BME280;32233;49.500;7.764;2023-12-22T09:16:11;97532.38;;;6.52;100.00
7433;BME280;32233;49.500;7.764;2023-12-22T09:18:41;97527.56;;;6.49;100.00
7433;BME280;32233;49.500;7.764;2023-12-22T09:21:09;97531.78;;;6.50;100.00
7433;BME280;32233;49.500;7.764;2023-12-22T09:23:35;97538.44;;;6.53;100.00
7433;BME280;32233;49.500;7.764;2023-12-22T09:26:02;97533.19;;;6.53;100.00
7433;BME280;32233;49.500;7.764;2023-12-22T09:28:31;97550.75;;;6.52;100.00
7433;BME280;32233;49.500;7.764;2023-12-22T09:30:57;97552.59;;;6.52;100.00
7433;BME280;32233;49.500;7.764;2023-12-22T09:33:24;97544.91;;;6.50;100.00
7433;BME280;32233;49.500;7.764;2023-12-22T09:35:50;97545.94;;;6.49;100.00
7433;BME280;32233;49.500;7.764;2023-12-22T09:38:17;97542.91;;;6.52;100.00
7433;BME280;32233;49.500;7.764;2023-12-22T09:40:44;97554.78;;;6.48;100.00
7433;BME280;32233;49.500;7.764;2023-12-22T09:43:14;97555.00;;;6.47;100.00
7433;BME280;32233;49.500;7.764;2023-12-22T09:45:41;97561.25;;;6.45;100.00
7433;BME280;32233;49.500;7.764;2023-12-22T09:48:10;97556.81;;;6.46;100.00
7433;BME280;32233;49.500;7.764;2023-12-22T09:50:39;97545.94;;;6.49;100.00
7433;BME280;32233;49.500;7.764;2023-12-22T09:53:07;97541.28;;;6.51;100.00
7433;BME280;32233;49.500;7.764;2023-12-22T09:55:34;97540.91;;;6.54;100.00
7433;BME280;32233;49.500;7.764;2023-12-22T09:58:02;97531.78;;;6.57;100.00
7433;BME280;32233;49.500;7.764;2023-12-22T10:00:31;97533.44;;;6.58;100.00
7433;BME280;32233;49.500;7.764;2023-12-22T10:02:58;97528.59;;;6.61;100.00
7433;BME280;32233;49.500;7.764;2023-12-22T10:05:24;97521.72;;;6.60;100.00
7433;BME280;32233;49.500;7.764;2023-12-22T10:07:51;97532.63;;;6.64;100.00
7433;BME280;32233;49.500;7.764;2023-12-22T10:10:19;97513.44;;;6.63;100.00
7433;BME280;32233;49.500;7.764;2023-12-22T10:12:46;97518.50;;;6.72;100.00
7433;BME280;32233;49.500;7.764;2023-12-22T10:15:14;97531.84;;;6.77;100.00
7433;BME280;32233;49.500;7.764;2023-12-22T10:17:41;97525.78;;;6.76;100.00
7433;BME280;32233;49.500;7.764;2023-12-22T10:20:08;97516.31;;;6.82;100.00
7433;BME280;32233;49.500;7.764;2023-12-22T10:22:35;97499.75;;;6.88;100.00
7433;BME280;32233;49.500;7.764;2023-12-22T10:25:02;97501.38;;;6.82;100.00
7433;BME280;32233;49.500;7.764;2023-12-22T10:27:29;97486.81;;;6.86;100.00
7433;BME280;32233;49.500;7.764;2023-12-22T10:29:56;97475.09;;;6.89;100.00
7433;BME280;32233;49.500;7.764;2023-12-22T10:32:23;97472.25;;;6.97;100.00
7433;BME280;32233;49.500;7.764;2023-12-22T10:34:53;97476.91;;;7.02;100.00
7433;BME280;32233;49.500;7.764;2023-12-22T10:37:21;97469.25;;;7.07;100.00
7433;BME280;32233;49.500;7.764;2023-12-22T10:39:54;97463.16;;;7.13;100.00
7433;BME280;32233;49.500;7.764;2023-12-22T10:42:20;97463.38;;;7.11;100.00
7433;BME280;32233;49.500;7.764;2023-12-22T10:44:48;97443.78;;;7.07;100.00
7433;BME280;32233;49.500;7.764;2023-12-22T10:47:17;97444.78;;;7.06;100.00
7433;BME280;32233;49.500;7.764;2023-12-22T10:49:46;97449.63;;;6.96;100.00
7433;BME280;32233;49.500;7.764;2023-12-22T10:52:16;97441.16;;;6.87;100.00
7433;BME280;32233;49.500;7.764;2023-12-22T10:54:44;97446.19;;;6.82;100.00
7433;BME280;32233;49.500;7.764;2023-12-22T10:57:11;97450.84;;;6.74;100.00
7433;BME280;32233;49.500;7.764;2023-12-22T10:59:47;97439.50;;;6.73;100.00
7433;BME280;32233;49.500;7.764;2023-12-22T11:02:27;97438.28;;;6.69;100.00
7433;BME280;32233;49.500;7.764;2023-12-22T11:05:01;97424.34;;;6.68;100.00
7433;BME280;32233;49.500;7.764;2023-12-22T11:07:28;97432.66;;;6.72;100.00
7433;BME280;32233;49.500;7.764;2023-12-22T11:10:03;97424.97;;;6.70;100.00
7433;BME280;32233;49.500;7.764;2023-12-22T11:12:34;97426.59;;;6.72;100.00
7433;BME280;32233;49.500;7.764;2023-12-22T11:15:03;97418.50;;;6.73;100.00
7433;BME280;32233;49.500;7.764;2023-12-22T11:17:33;97408.41;;;6.70;100.00
7433;BME280;32233;49.500;7.764;2023-12-22T11:20:01;97406.59;;;6.70;100.00
7433;BME280;32233;49.500;7.764;2023-12-22T11:22:30;97413.88;;;6.62;100.00
7433;BME280;32233;49.500;7.764;2023-12-22T11:24:58;97415.66;;;6.55;100.00
7433;BME280;32233;49.500;7.764;2023-12-22T11:27:25;97408.38;;;6.57;100.00
7433;BME280;32233;49.500;7.764;2023-12-22T11:29:53;97407.78;;;6.48;100.00
7433;BME280;32233;49.500;7.764;2023-12-22T11:32:20;97400.91;;;6.47;100.00
7433;BME280;32233;49.500;7.764;2023-12-22T11:34:47;97394.66;;;6.41;100.00
7433;BME280;32233;49.500;7.764;2023-12-22T11:37:15;97394.03;;;6.39;100.00
7433;BME280;32233;49.500;7.764;2023-12-22T11:39:45;97391.22;;;6.41;100.00
7433;BME280;32233;49.500;7.764;2023-12-22T11:42:16;97386.97;;;6.40;100.00
7433;BME280;32233;49.500;7.764;2023-12-22T11:44:44;97381.72;;;6.40;100.00
7433;BME280;32233;49.500;7.764;2023-12-22T11:47:11;97367.41;;;6.42;100.00
7433;BME280;32233;49.500;7.764;2023-12-22T11:49:40;97363.16;;;6.48;100.00
7433;BME280;32233;49.500;7.764;2023-12-22T11:52:15;97366.56;;;6.49;100.00
7433;BME280;32233;49.500;7.764;2023-12-22T11:54:53;97358.09;;;6.47;100.00
7433;BME280;32233;49.500;7.764;2023-12-22T12:02:40;97334.47;;;6.40;100.00
7433;BME280;32233;49.500;7.764;2023-12-22T12:05:09;97325.81;;;6.46;100.00
7433;BME280;32233;49.500;7.764;2023-12-22T12:07:40;97333.88;;;6.44;100.00
7433;BME280;32233;49.500;7.764;2023-12-22T12:10:08;97325.19;;;6.44;100.00
7433;BME280;32233;49.500;7.764;2023-12-22T12:12:35;97315.72;;;6.50;100.00
7433;BME280;32233;49.500;7.764;2023-12-22T12:15:23;97303.56;;;6.49;100.00
7433;BME280;32233;49.500;7.764;2023-12-22T12:17:51;97303.00;;;6.53;100.00
7433;BME280;32233;49.500;7.764;2023-12-22T12:20:21;97293.25;;;6.60;100.00
7433;BME280;32233;49.500;7.764;2023-12-22T12:22:48;97293.25;;;6.60;100.00
7433;BME280;32233;49.500;7.764;2023-12-22T12:25:14;97283.97;;;6.64;100.00
7433;BME280;32233;49.500;7.764;2023-12-22T12:28:07;97274.88;;;6.67;100.00
7433;BME280;32233;49.500;7.764;2023-12-22T12:30:37;97277.50;;;6.74;100.00
7433;BME280;32233;49.500;7.764;2023-12-22T12:33:08;97278.72;;;6.78;100.00
7433;BME280;32233;49.500;7.764;2023-12-22T12:35:40;97273.03;;;6.81;100.00
7433;BME280;32233;49.500;7.764;2023-12-22T12:38:16;97278.50;;;6.86;100.00
7433;BME280;32233;49.500;7.764;2023-12-22T12:40:45;97266.94;;;6.93;100.00
7433;BME280;32233;49.500;7.764;2023-12-22T12:43:12;97267.13;;;6.99;100.00
7433;BME280;32233;49.500;7.764;2023-12-22T12:45:40;97271.94;;;7.08;100.00
7433;BME280;32233;49.500;7.764;2023-12-22T12:48:07;97279.44;;;7.11;100.00
7433;BME280;32233;49.500;7.764;2023-12-22T12:50:34;97269.09;;;7.16;100.00
7433;BME280;32233;49.500;7.764;2023-12-22T12:53:02;97284.03;;;7.23;100.00
7433;BME280;32233;49.500;7.764;2023-12-22T12:55:29;97286.06;;;7.20;100.00
7433;BME280;32233;49.500;7.764;2023-12-22T12:57:56;97272.69;;;7.22;100.00
7433;BME280;32233;49.500;7.764;2023-12-22T13:00:30;97285.25;;;7.27;100.00
7433;BME280;32233;49.500;7.764;2023-12-22T13:03:01;97268.03;;;7.31;100.00
7433;BME280;32233;49.500;7.764;2023-12-22T13:05:33;97274.91;;;7.32;100.00
7433;BME280;32233;49.500;7.764;2023-12-22T13:08:11;97275.69;;;7.32;100.00
7433;BME280;32233;49.500;7.764;2023-12-22T13:10:40;97275.91;;;7.31;100.00
7433;BME280;32233;49.500;7.764;2023-12-22T13:13:07;97275.47;;;7.34;100.00
7433;BME280;32233;49.500;7.764;2023-12-22T13:15:34;97282.16;;;7.36;100.00
7433;BME280;32233;49.500;7.764;2023-12-22T13:18:01;97286.19;;;7.39;100.00
7433;BME280;32233;49.500;7.764;2023-12-22T13:20:27;97288.59;;;7.47;100.00
7433;BME280;32233;49.500;7.764;2023-12-22T13:22:54;97294.22;;;7.51;100.00
7433;BME280;32233;49.500;7.764;2023-12-22T13:25:21;97291.00;;;7.49;100.00